• Join FlightAware (Why Join?)
  • Login
  • US Flag 
02:38PM EST


 

Airport Tracker/Info


-or-


 

Live Flight TrackerFlight Track Log ✈ N60PP ✈ 04-May-2013 ✈ KARB - KEKM

Flight Track Log - Related Links

Times and Time Zones

All times are in EDT time to prevent confusion due to time zone crossing. See the N60PP flight status page for this flight to view local times or setup timezone preferences in your user account.

Time Position Orientation Groundspeed Altitude Reporting Facility
EDT Latitude Longitude Course Direction KTS MPH feet Rate Location/Type
10:08PM 42.1836 -83.8758 255° West 132 152 4,500  Level Cleveland Center
10:10PM 42.1653 -83.9656 255° West 137 158 5,900 480 Climbing Chicago Center
10:11PM 42.1522 -84.0322 255° West 164 189 5,900  Level Chicago Center
10:12PM 42.1378 -84.1014 254° West 181 208 5,900  Level Chicago Center
10:13PM 42.1217 -84.1692 252° West 188 216 5,900  Level Chicago Center
10:14PM 42.1083 -84.2356 255° West 186 214 5,900  Level Chicago Center
10:15PM 42.0922 -84.3094 254° West 193 222 5,900  Level Chicago Center
10:16PM 42.0794 -84.3803 256° West 195 224 5,900  Level Chicago Center
10:17PM 42.0647 -84.4497 254° West 194 223 5,900  Level Chicago Center
10:18PM 42.0531 -84.5183 257° West 190 219 5,900  Level Chicago Center
10:19PM 42.0394 -84.5864 255° West 194 223 5,900  Level Chicago Center
10:20PM 42.0219 -84.6719 255° West 198 228 5,900  Level Chicago Center
10:21PM 42.0094 -84.7419 257° West 195 224 5,900  Level Chicago Center
10:22PM 41.9956 -84.8125 255° West 196 226 5,900  Level Chicago Center
10:23PM 41.9822 -84.8831 256° West 197 227 5,900  Level Chicago Center
10:24PM 41.9678 -84.9525 254° West 195 224 5,900  Level Chicago Center
10:25PM 41.9544 -85.0225 256° West 195 224 5,900  Level Chicago Center
10:26PM 41.9400 -85.0942 255° West 198 228 5,900  Level Chicago Center
10:27PM 41.9244 -85.1656 254° West 200 230 5,900  Level Chicago Center
10:28PM 41.9089 -85.2369 254° West 200 230 5,900  Level Chicago Center
10:29PM 41.8942 -85.3092 255° West 202 232 5,900 -99 Level Chicago Center
10:30PM 41.8789 -85.3814 254° West 202 232 5,700 -400 Descending Chicago Center
10:31PM 41.8617 -85.4550 253° West 207 238 5,100 -645 Descending Chicago Center
10:32PM 41.8433 -85.5292 252° West 211 243 4,400 -694 Descending Chicago Center
10:33PM 41.8275 -85.6025 254° West 209 241 3,700 -564 Descending Chicago Center
10:35PM 41.7911 -85.7581 253° West 207 238 2,700 -496 Descending Chicago Center